Time;durP1;ratioP1;P1;durP2;ratioP2;P2;SDS_P1;SDS_P2;PMS_P1;PMS_P2;Temp;Humidity;BMP_temperature;BMP_pressure;BME280_temperature;BME280_humidity;BME280_pressure;Samples;Min_cycle;Max_cycle;Signal;HPM_P1;HPM_P2
2024/03/21 00:01:44;;;;;;;10.75;7.30;;;;;;;;;;6332723;22;20085;-74
2024/03/21 00:04:10;;;;;;;5.65;5.15;;;;;;;;;;6332684;22;20407;-73
2024/03/21 00:06:35;;;;;;;11.27;8.13;;;;;;;;;;6332035;22;20360;-73
2024/03/21 00:09:01;;;;;;;6.80;5.47;;;;;;;;;;6332833;22;20358;-74
2024/03/21 00:11:27;;;;;;;3.85;3.55;;;;;;;;;;6331578;22;20014;-73
2024/03/21 00:13:53;;;;;;;9.80;4.80;;;;;;;;;;6305437;22;20371;-74
2024/03/21 00:16:19;;;;;;;8.30;5.97;;;;;;;;;;6334293;22;20017;-74
2024/03/21 00:18:45;;;;;;;5.43;4.93;;;;;;;;;;6331677;22;20011;-75
2024/03/21 00:21:11;;;;;;;6.97;5.80;;;;;;;;;;6305742;22;20010;-74
2024/03/21 00:23:37;;;;;;;6.32;5.65;;;;;;;;;;6304283;22;20019;-73
2024/03/21 00:26:03;;;;;;;7.28;4.63;;;;;;;;;;6333664;22;20019;-73
2024/03/21 00:28:29;;;;;;;13.77;9.98;;;;;;;;;;6334227;22;20501;-73
2024/03/21 00:30:56;;;;;;;12.35;8.88;;;;;;;;;;6333370;22;20011;-72
2024/03/21 00:33:23;;;;;;;15.80;9.95;;;;;;;;;;6204802;22;20021;-74
2024/03/21 00:35:49;;;;;;;15.73;9.10;;;;;;;;;;6178768;23;20013;-73
2024/03/21 00:38:15;;;;;;;11.27;7.25;;;;;;;;;;6184157;23;20012;-74
2024/03/21 00:40:41;;;;;;;5.63;5.13;;;;;;;;;;6212384;23;20012;-74
2024/03/21 00:43:07;;;;;;;9.30;6.57;;;;;;;;;;6193727;23;20064;-74
2024/03/21 00:45:33;;;;;;;11.07;9.20;;;;;;;;;;6155880;23;20426;-75
2024/03/21 00:48:02;;;;;;;17.15;9.95;;;;;;;;;;6150786;23;20415;-74
2024/03/21 00:50:31;;;;;;;20.55;9.68;;;;;;;;;;6177508;23;20024;-74
2024/03/21 00:52:57;;;;;;;13.13;8.73;;;;;;;;;;6138996;23;20017;-75
2024/03/21 00:55:23;;;;;;;12.35;9.48;;;;;;;;;;6154497;23;20013;-74
2024/03/21 00:57:49;;;;;;;9.85;8.05;;;;;;;;;;6175214;23;20311;-74
2024/03/21 01:00:15;;;;;;;12.52;9.63;;;;;;;;;;6201136;23;20457;-74
2024/03/21 01:02:41;;;;;;;15.15;9.23;;;;;;;;;;6177440;23;20021;-73
2024/03/21 01:05:08;;;;;;;17.52;9.32;;;;;;;;;;6153938;23;20016;-74
2024/03/21 01:07:34;;;;;;;17.58;9.43;;;;;;;;;;6153333;22;20473;-74
2024/03/21 01:10:00;;;;;;;13.50;8.90;;;;;;;;;;6153129;23;20009;-74
2024/03/21 01:12:29;;;;;;;18.15;9.35;;;;;;;;;;6217361;22;20010;-73
2024/03/21 01:14:55;;;;;;;11.95;8.02;;;;;;;;;;6330475;22;20066;-75
2024/03/21 01:17:21;;;;;;;12.48;8.45;;;;;;;;;;6303664;22;20018;-74
2024/03/21 01:19:50;;;;;;;13.52;8.23;;;;;;;;;;6331794;22;20006;-74
2024/03/21 01:22:16;;;;;;;12.80;9.20;;;;;;;;;;6242016;22;20036;-74
2024/03/21 01:24:46;;;;;;;11.10;7.88;;;;;;;;;;6173710;22;20017;-74
2024/03/21 01:27:12;;;;;;;12.10;8.70;;;;;;;;;;6173676;22;20020;-75
2024/03/21 01:29:37;;;;;;;12.35;9.98;;;;;;;;;;6173307;22;20017;-74
2024/03/21 01:32:03;;;;;;;15.50;10.05;;;;;;;;;;6193967;22;20343;-74
2024/03/21 01:34:30;;;;;;;19.77;11.07;;;;;;;;;;6303596;22;20021;-74
2024/03/21 01:36:57;;;;;;;26.15;12.38;;;;;;;;;;6330944;22;20015;-74
2024/03/21 01:39:23;;;;;;;29.40;16.27;;;;;;;;;;6304061;22;20015;-73
2024/03/21 01:41:49;;;;;;;15.40;10.35;;;;;;;;;;6325515;22;20011;-74
2024/03/21 01:44:23;;;;;;;16.75;11.48;;;;;;;;;;6177090;22;20377;-74
2024/03/21 01:46:49;;;;;;;12.98;6.53;;;;;;;;;;6203538;22;20377;-74
2024/03/21 01:49:15;;;;;;;12.00;8.18;;;;;;;;;;6179037;23;20042;-74
2024/03/21 01:51:42;;;;;;;6.22;5.63;;;;;;;;;;6178982;23;20016;-73
2024/03/21 01:54:11;;;;;;;19.33;6.18;;;;;;;;;;6205010;23;20023;-74
2024/03/21 01:56:37;;;;;;;10.13;7.30;;;;;;;;;;6179558;23;20019;-75
2024/03/21 01:59:12;;;;;;;13.93;6.85;;;;;;;;;;6179007;23;20009;-75
2024/03/21 02:01:41;;;;;;;6.68;5.38;;;;;;;;;;6178219;23;20337;-75
2024/03/21 02:04:11;;;;;;;7.07;6.03;;;;;;;;;;6178330;23;20012;-74
2024/03/21 02:06:37;;;;;;;20.02;6.05;;;;;;;;;;6204802;23;20024;-74
2024/03/21 02:09:06;;;;;;;6.50;5.60;;;;;;;;;;6129569;23;20491;-74
2024/03/21 02:11:32;;;;;;;11.68;7.68;;;;;;;;;;6178482;23;20024;-74
2024/03/21 02:13:58;;;;;;;13.68;8.40;;;;;;;;;;6177273;23;20017;-75
2024/03/21 02:16:25;;;;;;;13.18;8.60;;;;;;;;;;6179413;22;20024;-75
2024/03/21 02:18:52;;;;;;;9.52;7.18;;;;;;;;;;6178615;23;20016;-73
2024/03/21 02:24:02;;;;;;;15.98;9.90;;;;;;;;;;6204664;23;20028;-75
2024/03/21 02:26:31;;;;;;;16.58;10.27;;;;;;;;;;6180160;23;20028;-75
2024/03/21 02:28:57;;;;;;;10.65;8.65;;;;;;;;;;6179840;23;20015;-73
2024/03/21 02:31:26;;;;;;;12.43;9.18;;;;;;;;;;6178222;23;20023;-74
2024/03/21 02:33:52;;;;;;;24.55;11.60;;;;;;;;;;6141913;22;20016;-75
2024/03/21 02:36:18;;;;;;;22.58;12.10;;;;;;;;;;6178418;23;20020;-73
2024/03/21 02:38:45;;;;;;;18.80;11.23;;;;;;;;;;6154506;22;20441;-73
2024/03/21 02:41:11;;;;;;;25.38;14.70;;;;;;;;;;6178201;23;20021;-73
2024/03/21 02:43:37;;;;;;;30.77;14.88;;;;;;;;;;6176580;23;20020;-73
2024/03/21 02:46:03;;;;;;;41.35;18.40;;;;;;;;;;6204646;23;20025;-74
2024/03/21 02:48:32;;;;;;;20.67;13.20;;;;;;;;;;6206268;23;20024;-75
2024/03/21 02:51:02;;;;;;;23.65;12.98;;;;;;;;;;6179739;23;20012;-74
2024/03/21 02:53:29;;;;;;;15.18;11.07;;;;;;;;;;6297346;22;20023;-75
2024/03/21 02:55:54;;;;;;;29.13;15.35;;;;;;;;;;6308389;22;20038;-75
2024/03/21 02:58:23;;;;;;;25.67;15.23;;;;;;;;;;6305306;22;20455;-74
2024/03/21 03:00:49;;;;;;;34.58;16.67;;;;;;;;;;6332334;22;20014;-75
2024/03/21 03:03:15;;;;;;;28.20;15.57;;;;;;;;;;6249781;22;20070;-75
2024/03/21 03:05:44;;;;;;;13.55;9.10;;;;;;;;;;6203574;23;20141;-74
2024/03/21 03:08:10;;;;;;;18.88;11.32;;;;;;;;;;6205104;23;20457;-73
2024/03/21 03:10:36;;;;;;;13.18;7.13;;;;;;;;;;6153612;22;20055;-74
2024/03/21 03:13:03;;;;;;;9.73;7.63;;;;;;;;;;6203873;23;20369;-75
2024/03/21 03:15:28;;;;;;;12.20;8.75;;;;;;;;;;6177849;23;20065;-74
2024/03/21 03:17:54;;;;;;;23.83;12.30;;;;;;;;;;6178008;22;20107;-75
2024/03/21 03:20:20;;;;;;;20.48;8.65;;;;;;;;;;6152290;23;20013;-75
2024/03/21 03:22:46;;;;;;;16.13;10.05;;;;;;;;;;6177368;23;20028;-74
2024/03/21 03:25:12;;;;;;;13.32;8.77;;;;;;;;;;6179617;22;20198;-73
2024/03/21 03:27:38;;;;;;;18.38;11.20;;;;;;;;;;6204280;23;20024;-73
2024/03/21 03:30:04;;;;;;;14.00;10.30;;;;;;;;;;6177407;23;20091;-74
2024/03/21 03:32:37;;;;;;;23.25;12.52;;;;;;;;;;6157682;22;20024;-77
2024/03/21 03:37:57;;;;;;;8.15;6.88;;;;;;;;;;6182721;23;20383;-76
2024/03/21 03:40:24;;;;;;;20.77;11.90;;;;;;;;;;6180550;23;20053;-73
2024/03/21 03:42:50;;;;;;;19.77;11.52;;;;;;;;;;6178786;23;20053;-74
2024/03/21 03:45:16;;;;;;;14.85;9.77;;;;;;;;;;6205665;23;20013;-75
2024/03/21 03:47:42;;;;;;;22.88;12.43;;;;;;;;;;6178482;23;20484;-75
2024/03/21 03:50:08;;;;;;;17.95;10.60;;;;;;;;;;6178517;23;20086;-72
2024/03/21 03:52:33;;;;;;;10.95;9.60;;;;;;;;;;6153664;22;20012;-74
2024/03/21 03:55:02;;;;;;;19.45;10.25;;;;;;;;;;6205868;23;20055;-74
2024/03/21 03:57:29;;;;;;;21.55;12.82;;;;;;;;;;6179138;22;20015;-74
2024/03/21 03:59:56;;;;;;;21.30;13.10;;;;;;;;;;6205270;22;20021;-74
2024/03/21 04:02:27;;;;;;;21.80;12.13;;;;;;;;;;6170394;22;20382;-73
2024/03/21 04:04:56;;;;;;;19.67;12.65;;;;;;;;;;6148834;23;20074;-74
2024/03/21 04:07:23;;;;;;;24.90;13.05;;;;;;;;;;6174732;22;20012;-74
2024/03/21 04:09:49;;;;;;;17.88;12.68;;;;;;;;;;6175411;23;20202;-75
2024/03/21 04:12:15;;;;;;;21.88;13.25;;;;;;;;;;6201539;22;20035;-74
2024/03/21 04:14:48;;;;;;;22.58;12.73;;;;;;;;;;6292824;22;20011;-73
2024/03/21 04:17:17;;;;;;;19.73;13.68;;;;;;;;;;6308176;22;20007;-74
2024/03/21 04:19:43;;;;;;;19.40;13.40;;;;;;;;;;6304839;22;20010;-74
2024/03/21 04:22:12;;;;;;;21.08;14.98;;;;;;;;;;6331482;22;20109;-74
2024/03/21 04:24:40;;;;;;;21.23;12.13;;;;;;;;;;6312170;22;20017;-74
2024/03/21 04:27:07;;;;;;;20.98;12.43;;;;;;;;;;6309186;22;20062;-74
2024/03/21 04:32:34;;;;;;;20.75;14.57;;;;;;;;;;6205629;22;20107;-74
2024/03/21 04:35:03;;;;;;;23.50;14.18;;;;;;;;;;6308895;22;20019;-73
2024/03/21 04:37:37;;;;;;;24.92;14.93;;;;;;;;;;6285072;22;20008;-73
2024/03/21 04:40:03;;;;;;;24.55;15.10;;;;;;;;;;6258382;22;20103;-74
2024/03/21 04:42:33;;;;;;;25.63;15.95;;;;;;;;;;6283772;22;20024;-74
2024/03/21 04:44:59;;;;;;;17.52;14.02;;;;;;;;;;6307162;22;20012;-74
2024/03/21 04:47:25;;;;;;;22.10;14.75;;;;;;;;;;6204827;22;20020;-73
2024/03/21 04:49:54;;;;;;;20.50;14.20;;;;;;;;;;6335993;22;20015;-74
2024/03/21 04:52:20;;;;;;;23.95;13.45;;;;;;;;;;6308201;22;20016;-74
2024/03/21 04:54:49;;;;;;;14.95;11.95;;;;;;;;;;6205909;23;20016;-76
2024/03/21 04:57:15;;;;;;;26.45;14.63;;;;;;;;;;6205780;23;20019;-75
2024/03/21 04:59:41;;;;;;;16.10;8.95;;;;;;;;;;6309724;22;20016;-75
2024/03/21 05:02:07;;;;;;;20.00;13.73;;;;;;;;;;6215307;22;20532;-77
2024/03/21 05:04:33;;;;;;;9.88;8.85;;;;;;;;;;6309736;22;20008;-75
2024/03/21 05:06:58;;;;;;;19.63;12.70;;;;;;;;;;6278710;22;20074;-74
2024/03/21 05:09:24;;;;;;;17.42;10.32;;;;;;;;;;6204434;23;20073;-74
2024/03/21 05:11:50;;;;;;;24.10;14.32;;;;;;;;;;6306778;22;20040;-74
2024/03/21 05:14:16;;;;;;;17.23;11.20;;;;;;;;;;6308578;22;20016;-74
2024/03/21 05:16:43;;;;;;;15.18;10.18;;;;;;;;;;6283166;22;20012;-74
2024/03/21 05:19:09;;;;;;;25.25;12.82;;;;;;;;;;6205112;22;20019;-77
2024/03/21 05:21:38;;;;;;;27.52;15.70;;;;;;;;;;6208092;23;20004;-77
2024/03/21 05:24:04;;;;;;;25.33;15.90;;;;;;;;;;6282198;22;20073;-79
2024/03/21 05:26:30;;;;;;;29.83;15.73;;;;;;;;;;6283544;22;20027;-77
2024/03/21 05:29:05;;;;;;;26.05;16.08;;;;;;;;;;6204824;23;20566;-76
2024/03/21 05:31:31;;;;;;;36.45;19.90;;;;;;;;;;6283292;22;20103;-78
2024/03/21 05:33:58;;;;;;;26.30;17.08;;;;;;;;;;6205139;22;20025;-83
2024/03/21 05:36:24;;;;;;;35.30;18.90;;;;;;;;;;6309489;22;20095;-80
2024/03/21 05:38:50;;;;;;;27.25;17.40;;;;;;;;;;6309203;22;20040;-80
2024/03/21 05:41:15;;;;;;;27.42;16.83;;;;;;;;;;6204885;23;20025;-80
2024/03/21 05:43:44;;;;;;;28.02;17.08;;;;;;;;;;6204345;22;20017;-79
2024/03/21 05:46:15;;;;;;;29.17;17.75;;;;;;;;;;6281742;22;20483;-76
2024/03/21 05:48:59;;;;;;;32.60;18.40;;;;;;;;;;6204436;23;20023;-78
2024/03/21 05:51:25;;;;;;;33.22;18.70;;;;;;;;;;6204330;23;20021;-79
2024/03/21 05:53:51;;;;;;;40.28;18.95;;;;;;;;;;6307040;22;20016;-78
2024/03/21 05:56:17;;;;;;;33.75;20.52;;;;;;;;;;6308640;22;20021;-76
2024/03/21 05:58:46;;;;;;;37.28;19.60;;;;;;;;;;6333392;22;20093;-71
2024/03/21 06:03:43;;;;;;;36.65;21.38;;;;;;;;;;6308222;22;20032;-71
2024/03/21 06:06:09;;;;;;;29.95;20.63;;;;;;;;;;6306652;22;20432;-71
2024/03/21 06:08:35;;;;;;;27.73;19.13;;;;;;;;;;6204254;23;20445;-71
2024/03/21 06:11:00;;;;;;;29.73;16.88;;;;;;;;;;6203736;23;20012;-71
2024/03/21 06:13:26;;;;;;;34.05;18.58;;;;;;;;;;6308864;22;20023;-71
2024/03/21 06:15:55;;;;;;;28.60;17.42;;;;;;;;;;6292450;22;20021;-71
2024/03/21 06:18:21;;;;;;;28.30;19.08;;;;;;;;;;6204452;23;20015;-72
2024/03/21 06:20:47;;;;;;;34.33;19.02;;;;;;;;;;6204047;23;20032;-72
2024/03/21 06:23:17;;;;;;;27.85;19.35;;;;;;;;;;6306170;22;20008;-71
2024/03/21 06:25:43;;;;;;;32.00;19.83;;;;;;;;;;6256256;22;20035;-71
2024/03/21 06:28:09;;;;;;;35.10;19.15;;;;;;;;;;6283917;22;20535;-71
2024/03/21 06:30:38;;;;;;;30.15;20.05;;;;;;;;;;6207357;23;20009;-72
2024/03/21 06:33:04;;;;;;;35.17;19.70;;;;;;;;;;6207330;23;20334;-71
2024/03/21 06:35:30;;;;;;;33.67;19.20;;;;;;;;;;6310982;22;20131;-72
2024/03/21 06:37:56;;;;;;;33.25;19.80;;;;;;;;;;6206022;23;20044;-71
2024/03/21 06:40:22;;;;;;;28.35;18.38;;;;;;;;;;6308640;22;20012;-71
2024/03/21 06:42:48;;;;;;;27.55;19.40;;;;;;;;;;6306547;22;20017;-70
2024/03/21 06:45:14;;;;;;;37.65;21.08;;;;;;;;;;6202226;23;20294;-71
2024/03/21 06:47:40;;;;;;;29.90;20.35;;;;;;;;;;6307678;22;20024;-73
2024/03/21 06:50:06;;;;;;;39.15;19.58;;;;;;;;;;6203025;23;20081;-74
2024/03/21 06:52:34;;;;;;;26.30;18.15;;;;;;;;;;6204259;22;20016;-74
2024/03/21 06:55:00;;;;;;;34.20;19.90;;;;;;;;;;6204203;23;20061;-75
2024/03/21 06:57:26;;;;;;;34.08;21.05;;;;;;;;;;6308912;22;20437;-74
2024/03/21 06:59:52;;;;;;;35.55;22.45;;;;;;;;;;6177979;23;20056;-72
2024/03/21 07:02:20;;;;;;;29.60;20.25;;;;;;;;;;6307443;22;20008;-72
2024/03/21 07:04:46;;;;;;;39.92;22.38;;;;;;;;;;6309304;22;20020;-73
2024/03/21 07:07:13;;;;;;;34.63;20.52;;;;;;;;;;6309196;22;20066;-73
2024/03/21 07:09:39;;;;;;;30.65;20.05;;;;;;;;;;6204181;23;20012;-74
2024/03/21 07:12:05;;;;;;;29.58;20.13;;;;;;;;;;6203401;22;20244;-73
2024/03/21 07:14:34;;;;;;;29.80;19.48;;;;;;;;;;6310550;22;20015;-73
2024/03/21 07:17:00;;;;;;;30.17;20.05;;;;;;;;;;6285806;22;20476;-73
2024/03/21 07:19:35;;;;;;;33.63;20.27;;;;;;;;;;6310342;22;20050;-74
2024/03/21 07:22:01;;;;;;;31.30;19.38;;;;;;;;;;6205194;22;20496;-74
2024/03/21 07:24:28;;;;;;;31.83;21.45;;;;;;;;;;6284725;22;20012;-73
2024/03/21 07:26:54;;;;;;;32.20;20.90;;;;;;;;;;6205442;22;20025;-73
2024/03/21 07:29:19;;;;;;;40.47;22.45;;;;;;;;;;6205661;23;20015;-73
2024/03/21 07:31:45;;;;;;;30.83;20.95;;;;;;;;;;6204128;22;20036;-73
2024/03/21 07:34:11;;;;;;;31.60;21.42;;;;;;;;;;6310561;22;20009;-73
2024/03/21 07:36:40;;;;;;;30.90;18.00;;;;;;;;;;6206442;23;20017;-74
2024/03/21 07:39:08;;;;;;;29.48;19.27;;;;;;;;;;6205649;23;20847;-73
2024/03/21 07:41:34;;;;;;;24.30;18.60;;;;;;;;;;6310477;22;20017;-73
2024/03/21 07:44:02;;;;;;;31.70;18.33;;;;;;;;;;6203394;22;20022;-73
2024/03/21 07:46:29;;;;;;;23.77;13.25;;;;;;;;;;6284639;22;20103;-74
2024/03/21 07:48:57;;;;;;;25.88;17.33;;;;;;;;;;6309103;22;20013;-73
2024/03/21 07:51:23;;;;;;;21.63;16.90;;;;;;;;;;6205675;23;20016;-73
2024/03/21 07:53:49;;;;;;;25.10;16.17;;;;;;;;;;6309816;22;20021;-72
2024/03/21 07:56:15;;;;;;;23.13;15.82;;;;;;;;;;6206609;23;20656;-74
2024/03/21 07:58:41;;;;;;;17.90;14.23;;;;;;;;;;6287144;22;20052;-75
2024/03/21 08:01:07;;;;;;;22.88;14.82;;;;;;;;;;6208479;23;20503;-74
2024/03/21 08:03:33;;;;;;;23.08;16.80;;;;;;;;;;6205445;22;20016;-73
2024/03/21 08:05:59;;;;;;;22.05;16.25;;;;;;;;;;6284186;22;20096;-74
2024/03/21 08:08:24;;;;;;;20.02;16.08;;;;;;;;;;6206483;23;20018;-74
2024/03/21 08:10:50;;;;;;;17.55;14.80;;;;;;;;;;6284956;22;20016;-75
2024/03/21 08:13:17;;;;;;;18.52;15.80;;;;;;;;;;6205445;22;20436;-74
2024/03/21 08:15:43;;;;;;;16.85;15.00;;;;;;;;;;6310313;22;20017;-74
2024/03/21 08:18:09;;;;;;;14.65;12.98;;;;;;;;;;6205351;23;20020;-74
2024/03/21 08:20:35;;;;;;;19.73;15.32;;;;;;;;;;6206194;23;20039;-73
2024/03/21 08:23:01;;;;;;;15.70;13.98;;;;;;;;;;6282853;22;20032;-74
2024/03/21 08:25:27;;;;;;;16.23;14.05;;;;;;;;;;6205076;23;20488;-74
2024/03/21 08:27:53;;;;;;;17.67;12.90;;;;;;;;;;6206030;23;20009;-75
2024/03/21 08:30:19;;;;;;;14.98;13.45;;;;;;;;;;6205959;23;20528;-75
2024/03/21 08:32:48;;;;;;;14.15;12.65;;;;;;;;;;6282834;22;20043;-73
2024/03/21 08:35:13;;;;;;;17.20;13.98;;;;;;;;;;6205502;23;20013;-74
2024/03/21 08:37:39;;;;;;;16.75;12.70;;;;;;;;;;6205102;23;20361;-72
2024/03/21 08:40:06;;;;;;;15.77;13.55;;;;;;;;;;6309729;22;20487;-73
2024/03/21 08:42:32;;;;;;;21.83;15.60;;;;;;;;;;6205419;22;20017;-72
2024/03/21 08:44:58;;;;;;;16.02;14.20;;;;;;;;;;6310154;22;20039;-73
2024/03/21 08:47:24;;;;;;;19.42;13.43;;;;;;;;;;6309746;22;20409;-72
2024/03/21 08:49:50;;;;;;;14.45;12.93;;;;;;;;;;6205775;23;20092;-72
2024/03/21 08:52:15;;;;;;;24.85;14.05;;;;;;;;;;6283502;22;20097;-73
2024/03/21 08:54:44;;;;;;;19.48;14.35;;;;;;;;;;6311201;22;20012;-72
2024/03/21 08:57:10;;;;;;;15.43;12.90;;;;;;;;;;6310025;22;20091;-72
2024/03/21 08:59:36;;;;;;;15.45;12.95;;;;;;;;;;6205151;23;20017;-72
2024/03/21 09:02:04;;;;;;;14.07;12.13;;;;;;;;;;6308004;22;20099;-72
2024/03/21 09:04:30;;;;;;;16.23;12.73;;;;;;;;;;6310059;22;20461;-73
2024/03/21 09:06:56;;;;;;;14.45;12.45;;;;;;;;;;6283628;22;20025;-72
2024/03/21 09:09:22;;;;;;;14.02;12.52;;;;;;;;;;6179899;23;20020;-72
2024/03/21 09:11:48;;;;;;;16.77;11.65;;;;;;;;;;6309078;22;20045;-73
2024/03/21 09:14:14;;;;;;;11.25;9.13;;;;;;;;;;6205136;23;20008;-72
2024/03/21 09:16:40;;;;;;;15.20;9.75;;;;;;;;;;6205713;23;20047;-72
2024/03/21 09:19:06;;;;;;;13.98;10.15;;;;;;;;;;6283541;22;20016;-72
2024/03/21 09:21:32;;;;;;;12.27;8.48;;;;;;;;;;6309730;22;20017;-72
2024/03/21 09:23:58;;;;;;;9.98;9.18;;;;;;;;;;6308522;22;20069;-73
2024/03/21 09:26:23;;;;;;;12.32;9.32;;;;;;;;;;6308211;22;20461;-72
2024/03/21 09:28:50;;;;;;;12.05;10.57;;;;;;;;;;6204701;23;20004;-72
2024/03/21 09:31:21;;;;;;;12.95;9.98;;;;;;;;;;6306567;22;20024;-72
2024/03/21 09:33:47;;;;;;;11.70;8.10;;;;;;;;;;6308247;22;20012;-73
2024/03/21 09:36:13;;;;;;;8.52;7.60;;;;;;;;;;6309519;22;20101;-70
2024/03/21 09:38:39;;;;;;;7.85;6.57;;;;;;;;;;6310905;22;20016;-72
2024/03/21 09:41:11;;;;;;;11.07;6.97;;;;;;;;;;6309212;22;20019;-71
2024/03/21 09:43:37;;;;;;;7.32;6.63;;;;;;;;;;6308046;22;20456;-72
2024/03/21 09:46:09;;;;;;;8.68;6.90;;;;;;;;;;6283415;22;20503;-72
2024/03/21 09:48:34;;;;;;;6.75;6.05;;;;;;;;;;6310421;22;20027;-71
2024/03/21 09:51:00;;;;;;;10.98;7.00;;;;;;;;;;6309173;22;20032;-72
2024/03/21 09:53:26;;;;;;;9.07;6.78;;;;;;;;;;6203824;22;20021;-72
2024/03/21 09:55:52;;;;;;;9.98;6.70;;;;;;;;;;6309454;22;20013;-72
2024/03/21 09:58:19;;;;;;;7.50;6.80;;;;;;;;;;6205521;23;20032;-72
2024/03/21 10:00:45;;;;;;;9.38;7.00;;;;;;;;;;6284330;22;20019;-72
2024/03/21 10:03:13;;;;;;;7.43;6.72;;;;;;;;;;6204063;22;20019;-73
2024/03/21 10:05:42;;;;;;;7.53;6.53;;;;;;;;;;6309017;22;20035;-72
2024/03/21 10:08:09;;;;;;;8.35;7.07;;;;;;;;;;6308160;22;20012;-72
2024/03/21 10:10:38;;;;;;;6.15;5.38;;;;;;;;;;6309544;22;20016;-72
2024/03/21 10:13:03;;;;;;;7.43;6.72;;;;;;;;;;6204695;22;20024;-72
2024/03/21 10:15:31;;;;;;;7.13;6.50;;;;;;;;;;6204348;22;20019;-71
2024/03/21 10:17:58;;;;;;;12.50;6.40;;;;;;;;;;6203987;23;20015;-72
2024/03/21 10:20:27;;;;;;;8.32;6.15;;;;;;;;;;6205429;23;20013;-72
2024/03/21 10:22:53;;;;;;;8.25;7.03;;;;;;;;;;6204121;22;20109;-72
2024/03/21 10:25:22;;;;;;;6.75;6.10;;;;;;;;;;6308813;22;20530;-71
2024/03/21 10:27:48;;;;;;;8.20;5.93;;;;;;;;;;6205359;23;20472;-74
2024/03/21 10:30:18;;;;;;;6.80;6.10;;;;;;;;;;6309245;22;20021;-73
2024/03/21 10:32:44;;;;;;;6.97;6.33;;;;;;;;;;6203940;22;20016;-72
2024/03/21 10:35:14;;;;;;;11.20;6.82;;;;;;;;;;6309318;22;20248;-72
2024/03/21 10:37:41;;;;;;;11.00;7.13;;;;;;;;;;6309229;22;20016;-72
2024/03/21 10:40:07;;;;;;;8.80;7.25;;;;;;;;;;6205173;23;20027;-71
2024/03/21 10:42:33;;;;;;;8.18;6.47;;;;;;;;;;6204936;22;20699;-72
2024/03/21 10:45:02;;;;;;;10.27;7.22;;;;;;;;;;6153505;23;20012;-72
2024/03/21 10:47:32;;;;;;;7.55;6.82;;;;;;;;;;6283313;22;20027;-72
2024/03/21 10:49:58;;;;;;;9.95;6.90;;;;;;;;;;6205578;23;20091;-72
2024/03/21 10:52:24;;;;;;;7.18;6.40;;;;;;;;;;6311409;22;20087;-72
2024/03/21 10:54:53;;;;;;;7.50;6.72;;;;;;;;;;6312507;22;20016;-71
2024/03/21 10:57:21;;;;;;;8.05;6.28;;;;;;;;;;6315872;22;20009;-72
2024/03/21 10:59:57;;;;;;;9.18;6.72;;;;;;;;;;6211926;22;20024;-72
2024/03/21 11:02:27;;;;;;;6.95;6.35;;;;;;;;;;6311952;22;20028;-73
2024/03/21 11:04:53;;;;;;;6.90;6.30;;;;;;;;;;6285384;22;20015;-73
2024/03/21 11:07:19;;;;;;;8.82;6.35;;;;;;;;;;6285633;22;20012;-74
2024/03/21 11:09:45;;;;;;;6.60;5.90;;;;;;;;;;6206528;23;20008;-71
2024/03/21 11:12:14;;;;;;;6.93;6.10;;;;;;;;;;6282288;22;20016;-72
2024/03/21 11:14:41;;;;;;;8.57;5.80;;;;;;;;;;6286092;22;20456;-72
2024/03/21 11:17:06;;;;;;;8.68;5.97;;;;;;;;;;6205122;23;20513;-73
2024/03/21 11:19:32;;;;;;;5.32;4.93;;;;;;;;;;6310444;22;20013;-72
2024/03/21 11:22:02;;;;;;;7.85;5.70;;;;;;;;;;6179970;22;20012;-73
2024/03/21 11:24:28;;;;;;;7.93;6.03;;;;;;;;;;6312364;22;20016;-72
2024/03/21 11:26:54;;;;;;;7.63;6.20;;;;;;;;;;6310566;22;20024;-72
2024/03/21 11:29:20;;;;;;;6.90;6.28;;;;;;;;;;6310614;22;20009;-72
2024/03/21 11:31:46;;;;;;;8.35;6.20;;;;;;;;;;6204120;22;20016;-73
2024/03/21 11:34:13;;;;;;;7.60;5.80;;;;;;;;;;6310474;22;20021;-71
2024/03/21 11:36:39;;;;;;;8.77;5.85;;;;;;;;;;6311774;22;20072;-72
2024/03/21 11:39:06;;;;;;;7.18;5.88;;;;;;;;;;6205483;22;20017;-71
2024/03/21 11:41:32;;;;;;;7.00;6.03;;;;;;;;;;6309686;22;20009;-72
2024/03/21 11:43:58;;;;;;;6.95;5.65;;;;;;;;;;6308862;22;20032;-71
2024/03/21 11:46:24;;;;;;;9.13;5.65;;;;;;;;;;6205353;23;20423;-73
2024/03/21 11:49:00;;;;;;;7.80;5.90;;;;;;;;;;6310757;22;20013;-72
2024/03/21 11:51:26;;;;;;;6.30;5.70;;;;;;;;;;6310327;22;20020;-71
2024/03/21 11:53:52;;;;;;;7.18;5.45;;;;;;;;;;6309481;22;20031;-72
2024/03/21 11:56:18;;;;;;;6.63;5.13;;;;;;;;;;6310590;22;20017;-72
2024/03/21 11:58:45;;;;;;;6.60;5.68;;;;;;;;;;6206603;23;20095;-72
2024/03/21 12:01:10;;;;;;;6.25;4.30;;;;;;;;;;6204773;22;20421;-72
2024/03/21 12:03:36;;;;;;;9.48;5.55;;;;;;;;;;6309777;22;20031;-72
2024/03/21 12:06:02;;;;;;;5.60;5.05;;;;;;;;;;6205182;22;20024;-72
2024/03/21 12:08:28;;;;;;;7.78;4.80;;;;;;;;;;6310542;22;20066;-72
2024/03/21 12:10:54;;;;;;;10.73;5.90;;;;;;;;;;6284214;22;20017;-71
2024/03/21 12:13:21;;;;;;;9.35;4.78;;;;;;;;;;6204402;22;20017;-72
2024/03/21 12:15:47;;;;;;;6.22;5.63;;;;;;;;;;6310485;22;20016;-73
2024/03/21 12:18:13;;;;;;;7.90;6.15;;;;;;;;;;6309920;22;20016;-73
2024/03/21 12:20:41;;;;;;;9.43;6.78;;;;;;;;;;6283000;22;20523;-72
2024/03/21 12:23:07;;;;;;;7.43;5.75;;;;;;;;;;6283229;22;20013;-72
2024/03/21 12:25:33;;;;;;;9.63;6.00;;;;;;;;;;6309688;22;20371;-71
2024/03/21 12:28:02;;;;;;;11.10;5.72;;;;;;;;;;6205972;23;20013;-72
2024/03/21 12:30:28;;;;;;;7.18;5.53;;;;;;;;;;6179509;23;20013;-71
2024/03/21 12:32:57;;;;;;;6.65;5.30;;;;;;;;;;6203883;22;20017;-71
2024/03/21 12:35:25;;;;;;;7.00;5.95;;;;;;;;;;6205443;23;20016;-72
2024/03/21 12:37:56;;;;;;;6.22;5.63;;;;;;;;;;6284384;22;20453;-71
2024/03/21 12:40:23;;;;;;;8.48;6.07;;;;;;;;;;6310465;22;20016;-72
2024/03/21 12:42:49;;;;;;;6.90;6.10;;;;;;;;;;6284182;22;20017;-72
2024/03/21 12:45:15;;;;;;;7.28;5.60;;;;;;;;;;6258526;22;20142;-71
2024/03/21 12:47:40;;;;;;;5.47;4.82;;;;;;;;;;6284011;22;20044;-71
2024/03/21 12:50:07;;;;;;;6.35;5.43;;;;;;;;;;6205133;23;20406;-73
2024/03/21 12:52:33;;;;;;;7.88;5.80;;;;;;;;;;6309755;22;20103;-71
2024/03/21 12:54:59;;;;;;;10.05;6.28;;;;;;;;;;6311808;22;20028;-72
2024/03/21 12:57:25;;;;;;;7.45;5.57;;;;;;;;;;6206535;23;20012;-71
2024/03/21 12:59:51;;;;;;;5.93;5.40;;;;;;;;;;6206535;23;20069;-71
2024/03/21 13:02:17;;;;;;;7.05;5.80;;;;;;;;;;6204014;22;20043;-72
2024/03/21 13:04:48;;;;;;;7.07;5.28;;;;;;;;;;6310553;22;20012;-72
2024/03/21 13:07:15;;;;;;;6.72;5.60;;;;;;;;;;6310733;22;20095;-72
2024/03/21 13:09:40;;;;;;;9.23;5.90;;;;;;;;;;6310506;22;20077;-72
2024/03/21 13:12:06;;;;;;;9.55;5.60;;;;;;;;;;6282197;22;20025;-71
2024/03/21 13:14:32;;;;;;;6.20;5.20;;;;;;;;;;6310720;22;20043;-71
2024/03/21 13:16:58;;;;;;;6.53;5.82;;;;;;;;;;6204625;22;20092;-71
2024/03/21 13:19:25;;;;;;;6.65;5.20;;;;;;;;;;6310308;22;20131;-71
2024/03/21 13:21:51;;;;;;;7.43;5.78;;;;;;;;;;6204343;22;20051;-72
2024/03/21 13:24:17;;;;;;;7.93;5.50;;;;;;;;;;6205212;22;20439;-72
2024/03/21 13:26:43;;;;;;;8.60;5.82;;;;;;;;;;6283392;22;20021;-72
2024/03/21 13:29:08;;;;;;;8.27;6.13;;;;;;;;;;6308694;22;20351;-72
2024/03/21 13:31:34;;;;;;;8.32;6.32;;;;;;;;;;6308686;22;20016;-73
2024/03/21 13:34:00;;;;;;;5.55;5.03;;;;;;;;;;6203868;22;20081;-72
2024/03/21 13:36:26;;;;;;;6.38;5.63;;;;;;;;;;6309577;22;20020;-72
2024/03/21 13:39:01;;;;;;;9.88;5.40;;;;;;;;;;6283207;22;20032;-73
2024/03/21 13:41:28;;;;;;;6.68;5.68;;;;;;;;;;6300760;22;20409;-72
2024/03/21 13:43:54;;;;;;;5.85;5.30;;;;;;;;;;6284419;22;20024;-73
2024/03/21 13:46:20;;;;;;;6.57;5.93;;;;;;;;;;6205810;23;20020;-73
2024/03/21 13:48:45;;;;;;;12.07;6.03;;;;;;;;;;6206924;23;20016;-71
2024/03/21 13:51:11;;;;;;;12.18;6.60;;;;;;;;;;6206725;22;20009;-71
2024/03/21 13:53:37;;;;;;;15.32;6.32;;;;;;;;;;6205821;22;20055;-72
2024/03/21 13:56:03;;;;;;;9.57;6.50;;;;;;;;;;6207313;22;20017;-72
2024/03/21 13:58:29;;;;;;;8.77;7.22;;;;;;;;;;6286108;22;20012;-71
2024/03/21 14:00:58;;;;;;;8.13;6.28;;;;;;;;;;6207244;23;20095;-71
2024/03/21 14:03:23;;;;;;;9.20;6.63;;;;;;;;;;6309930;22;20017;-71
2024/03/21 14:05:50;;;;;;;11.75;6.97;;;;;;;;;;6311480;22;20020;-71
2024/03/21 14:08:17;;;;;;;11.80;6.97;;;;;;;;;;6285300;22;20016;-70
2024/03/21 14:10:43;;;;;;;8.70;6.85;;;;;;;;;;6311848;22;20020;-70
2024/03/21 14:13:13;;;;;;;9.32;6.78;;;;;;;;;;6283003;22;20415;-70
2024/03/21 14:15:39;;;;;;;8.27;7.28;;;;;;;;;;6206899;22;20449;-71
2024/03/21 14:18:08;;;;;;;8.75;6.15;;;;;;;;;;6206404;23;20012;-72
2024/03/21 14:20:35;;;;;;;8.60;6.97;;;;;;;;;;6206416;23;20012;-70
2024/03/21 14:23:01;;;;;;;9.05;6.32;;;;;;;;;;6204857;22;20027;-71
2024/03/21 14:25:27;;;;;;;7.35;6.35;;;;;;;;;;6285043;22;20060;-71
2024/03/21 14:27:53;;;;;;;8.07;7.35;;;;;;;;;;6311020;22;20013;-72
2024/03/21 14:30:18;;;;;;;9.90;7.13;;;;;;;;;;6206678;22;20013;-72
2024/03/21 14:32:45;;;;;;;8.75;6.75;;;;;;;;;;6283745;22;20027;-72
2024/03/21 14:35:11;;;;;;;12.35;6.90;;;;;;;;;;6206253;23;20460;-70
2024/03/21 14:37:38;;;;;;;9.52;6.88;;;;;;;;;;6337448;22;20012;-72